Time;durP1;ratioP1;P1;durP2;ratioP2;P2;SDS_P1;SDS_P2;PMS_P1;PMS_P2;Temp;Humidity;BMP_temperature;BMP_pressure;BME280_temperature;BME280_humidity;BME280_pressure;Samples;Min_cycle;Max_cycle;Signal;HPM_P1;HPM_P2
2021/11/25 00:00:12;;;;;;;;;;;;;;;;;;1016618;29;952;-36
2021/11/25 00:00:43;;;;;;;;;;;;;;;;;;1008069;29;972;-34
2021/11/25 00:01:13;;;;;;;;;;;;;;;;;;1004711;29;1054;-34
2021/11/25 00:01:44;;;;;;;;;;;;;;;;;;1004487;29;914;-30
2021/11/25 00:02:14;;;;;;;;;;;;;;;;;;997611;29;921;-34
2021/11/25 00:02:45;;;;;;;;;;;;;;;;;;1005087;29;893;-34
2021/11/25 00:03:15;;;;;;;;;;;;;;;;;;1002119;29;875;-34
2021/11/25 00:03:46;;;;;;;;;;;;;;;;;;1002052;29;917;-33
2021/11/25 00:04:17;;;;;;;;;;;;;;;;;;1001780;29;1390;-35
2021/11/25 00:04:47;;;;;;;;;;;;;;;;;;1002066;29;1018;-37
2021/11/25 00:05:18;;;;;;;;;;;;;;;;;;1005254;29;1096;-37
2021/11/25 00:05:48;;;;;;;;;;;;;;;;;;1005387;29;1309;-35
2021/11/25 00:06:19;;;;;;;;;;;;;;;;;;1005378;29;1038;-31
2021/11/25 00:06:49;;;;;;;;;;;;;;;;;;1005523;29;886;-37
2021/11/25 00:07:20;;;;;;;;;;;;;;;;;;1001824;29;1308;-35
2021/11/25 00:07:50;;;;;;;;;;;;;;;;;;1002094;29;847;-37
2021/11/25 00:08:21;;;;;;;;;;;;;;;;;;1001991;29;1486;-37
2021/11/25 00:08:52;;;;;;;;;;;;;;;;;;1008768;29;1097;-36
2021/11/25 00:09:23;;;;;;;;;;;;;;;;;;1008943;29;1016;-32
2021/11/25 00:09:53;;;;;;;;;;;;;;;;;;1006239;29;1166;-32
2021/11/25 00:10:23;;;;;;;;;;;;;;;;;;1008855;29;1135;-35
2021/11/25 00:10:54;;;;;;;;;;;;;;;;;;1002034;29;1962;-35
2021/11/25 00:11:25;;;;;;;;;;;;;;;;;;1002061;29;982;-34
2021/11/25 00:11:56;;;;;;;;;;;;;;;;;;1001850;29;1023;-37
2021/11/25 00:12:26;;;;;;;;;;;;;;;;;;1001780;29;1087;-35
2021/11/25 00:12:57;;;;;;;;;;;;;;;;;;1002081;29;1044;-35
2021/11/25 00:13:27;;;;;;;;;;;;;;;;;;1002157;29;915;-34
2021/11/25 00:13:58;;;;;;;;;;;;;;;;;;1001391;29;1507;-33
2021/11/25 00:14:28;;;;;;;;;;;;;;;;;;1001961;29;1209;-33
2021/11/25 00:14:59;;;;;;;;;;;;;;;;;;1012835;29;1105;-33
2021/11/25 00:15:30;;;;;;;;;;;;;;;;;;1012858;29;1031;-32
2021/11/25 00:16:01;;;;;;;;;;;;;;;;;;1012844;29;1036;-36
2021/11/25 00:16:32;;;;;;;;;;;;;;;;;;1012495;29;1121;-34
2021/11/25 00:17:02;;;;;;;;;;;;;;;;;;1001858;29;910;-34
2021/11/25 00:17:33;;;;;;;;;;;;;;;;;;1001631;29;1058;-34
2021/11/25 00:18:03;;;;;;;;;;;;;;;;;;1001905;29;1075;-36
2021/11/25 00:18:34;;;;;;;;;;;;;;;;;;1002221;29;870;-34
2021/11/25 00:19:04;;;;;;;;;;;;;;;;;;1002106;29;1027;-33
2021/11/25 00:19:35;;;;;;;;;;;;;;;;;;1001944;29;913;-35
2021/11/25 00:20:07;;;;;;;;;;;;;;;;;;1002237;29;851;-36
2021/11/25 00:20:37;;;;;;;;;;;;;;;;;;1001879;29;1268;-35
2021/11/25 00:21:09;;;;;;;;;;;;;;;;;;1002001;29;867;-35
2021/11/25 00:21:42;;;;;;;;;;;;;;;;;;1002275;29;927;-33
2021/11/25 00:22:12;;;;;;;;;;;;;;;;;;1001713;29;914;-34
2021/11/25 00:22:44;;;;;;;;;;;;;;;;;;1012698;29;1213;-34
2021/11/25 00:23:15;;;;;;;;;;;;;;;;;;1012721;29;1348;-35
2021/11/25 00:23:45;;;;;;;;;;;;;;;;;;1012865;29;1042;-35
2021/11/25 00:24:16;;;;;;;;;;;;;;;;;;1012499;29;987;-32
2021/11/25 00:24:47;;;;;;;;;;;;;;;;;;1008837;29;1701;-35
2021/11/25 00:25:18;;;;;;;;;;;;;;;;;;1004971;29;1331;-34
2021/11/25 00:25:48;;;;;;;;;;;;;;;;;;1004972;29;1438;-34
2021/11/25 00:26:19;;;;;;;;;;;;;;;;;;1004811;29;1031;-33
2021/11/25 00:26:50;;;;;;;;;;;;;;;;;;1001292;29;1154;-32
2021/11/25 00:27:20;;;;;;;;;;;;;;;;;;1001005;29;1299;-32
2021/11/25 00:27:51;;;;;;;;;;;;;;;;;;1004959;29;1473;-30
2021/11/25 00:28:22;;;;;;;;;;;;;;;;;;1005235;29;1043;-32
2021/11/25 00:28:52;;;;;;;;;;;;;;;;;;1005127;29;954;-34
2021/11/25 00:29:23;;;;;;;;;;;;;;;;;;1005169;29;1092;-35
2021/11/25 00:29:53;;;;;;;;;;;;;;;;;;1008622;29;907;-34
2021/11/25 00:30:24;;;;;;;;;;;;;;;;;;1009204;29;879;-31
2021/11/25 00:30:54;;;;;;;;;;;;;;;;;;1008786;29;1919;-33
2021/11/25 00:31:25;;;;;;;;;;;;;;;;;;1008963;29;851;-34
2021/11/25 00:31:56;;;;;;;;;;;;;;;;;;1002103;29;1074;-35
2021/11/25 00:32:27;;;;;;;;;;;;;;;;;;1012524;29;951;-35
2021/11/25 00:32:57;;;;;;;;;;;;;;;;;;1012941;29;882;-36
2021/11/25 00:33:28;;;;;;;;;;;;;;;;;;1016432;29;997;-31
2021/11/25 00:33:59;;;;;;;;;;;;;;;;;;1016292;29;951;-31
2021/11/25 00:34:29;;;;;;;;;;;;;;;;;;1008960;29;1801;-34
2021/11/25 00:35:00;;;;;;;;;;;;;;;;;;1012682;29;1183;-34
2021/11/25 00:35:30;;;;;;;;;;;;;;;;;;1008908;29;947;-33
2021/11/25 00:36:01;;;;;;;;;;;;;;;;;;1009045;29;1356;-36
2021/11/25 00:36:31;;;;;;;;;;;;;;;;;;1008961;29;800;-34
2021/11/25 00:37:03;;;;;;;;;;;;;;;;;;1002145;29;925;-34
2021/11/25 00:37:34;;;;;;;;;;;;;;;;;;1012451;29;1369;-35
2021/11/25 00:38:05;;;;;;;;;;;;;;;;;;1004748;29;1297;-34
2021/11/25 00:38:36;;;;;;;;;;;;;;;;;;1005027;29;1334;-32
2021/11/25 00:39:07;;;;;;;;;;;;;;;;;;1000234;29;1020;-34
2021/11/25 00:39:38;;;;;;;;;;;;;;;;;;993981;29;1126;-34
2021/11/25 00:40:11;;;;;;;;;;;;;;;;;;997010;29;1405;-37
2021/11/25 00:40:41;;;;;;;;;;;;;;;;;;998319;29;956;-36
2021/11/25 00:41:13;;;;;;;;;;;;;;;;;;1004491;29;1019;-36
2021/11/25 00:41:45;;;;;;;;;;;;;;;;;;1001122;29;899;-33
2021/11/25 00:42:16;;;;;;;;;;;;;;;;;;1001469;29;1008;-33
2021/11/25 00:42:47;;;;;;;;;;;;;;;;;;1004801;29;1037;-34
2021/11/25 00:43:18;;;;;;;;;;;;;;;;;;1005024;29;1105;-31
2021/11/25 00:43:49;;;;;;;;;;;;;;;;;;1005237;29;895;-32
2021/11/25 00:44:19;;;;;;;;;;;;;;;;;;1004487;29;1202;-36
2021/11/25 00:44:50;;;;;;;;;;;;;;;;;;1005952;29;1138;-31
2021/11/25 00:45:21;;;;;;;;;;;;;;;;;;1005464;29;1155;-33
2021/11/25 00:45:52;;;;;;;;;;;;;;;;;;1008783;29;1090;-34
2021/11/25 00:46:22;;;;;;;;;;;;;;;;;;1009123;29;991;-33
2021/11/25 00:46:53;;;;;;;;;;;;;;;;;;1008624;29;1064;-35
2021/11/25 00:47:23;;;;;;;;;;;;;;;;;;1009031;29;879;-33
2021/11/25 00:47:54;;;;;;;;;;;;;;;;;;1005729;29;932;-35
2021/11/25 00:48:25;;;;;;;;;;;;;;;;;;1008808;29;986;-34
2021/11/25 00:48:55;;;;;;;;;;;;;;;;;;1009103;29;1309;-31
2021/11/25 00:49:25;;;;;;;;;;;;;;;;;;1008366;29;1467;-31
2021/11/25 00:49:56;;;;;;;;;;;;;;;;;;1008993;29;1091;-35
2021/11/25 00:50:26;;;;;;;;;;;;;;;;;;1005774;29;974;-33
2021/11/25 00:50:57;;;;;;;;;;;;;;;;;;1008527;29;1914;-35
2021/11/25 00:51:28;;;;;;;;;;;;;;;;;;1009079;29;960;-37
2021/11/25 00:51:58;;;;;;;;;;;;;;;;;;1008595;29;1412;-34
2021/11/25 00:52:29;;;;;;;;;;;;;;;;;;1008952;29;1149;-36
2021/11/25 00:52:59;;;;;;;;;;;;;;;;;;1005699;29;963;-34
2021/11/25 00:53:30;;;;;;;;;;;;;;;;;;1005567;29;1064;-31
2021/11/25 00:54:01;;;;;;;;;;;;;;;;;;1012976;29;934;-36
2021/11/25 00:54:31;;;;;;;;;;;;;;;;;;1012553;29;1075;-36
2021/11/25 00:55:02;;;;;;;;;;;;;;;;;;1013136;29;843;-32
2021/11/25 00:55:33;;;;;;;;;;;;;;;;;;1012614;29;943;-34
2021/11/25 00:56:03;;;;;;;;;;;;;;;;;;1005862;29;954;-33
2021/11/25 00:56:34;;;;;;;;;;;;;;;;;;1005977;29;1121;-35
2021/11/25 00:57:04;;;;;;;;;;;;;;;;;;1005775;29;1228;-34
2021/11/25 00:57:35;;;;;;;;;;;;;;;;;;1005207;29;1514;-33
2021/11/25 00:58:06;;;;;;;;;;;;;;;;;;1005622;29;1015;-31
2021/11/25 00:58:36;;;;;;;;;;;;;;;;;;1005707;29;1292;-36
2021/11/25 00:59:07;;;;;;;;;;;;;;;;;;1006001;29;1097;-34
2021/11/25 00:59:37;;;;;;;;;;;;;;;;;;1008760;29;1071;-34
2021/11/25 01:00:10;;;;;;;;;;;;;;;;;;1008702;29;1553;-29
2021/11/25 01:00:41;;;;;;;;;;;;;;;;;;1009014;29;1399;-34
2021/11/25 01:01:11;;;;;;;;;;;;;;;;;;1008606;29;1018;-33
2021/11/25 01:01:43;;;;;;;;;;;;;;;;;;1005853;29;935;-34
2021/11/25 01:02:13;;;;;;;;;;;;;;;;;;1004786;29;1305;-34
2021/11/25 01:02:44;;;;;;;;;;;;;;;;;;1004915;29;923;-31
2021/11/25 01:03:14;;;;;;;;;;;;;;;;;;1005078;29;1101;-33
2021/11/25 01:03:45;;;;;;;;;;;;;;;;;;1005204;29;879;-34
2021/11/25 01:04:16;;;;;;;;;;;;;;;;;;1005050;29;952;-34
2021/11/25 01:04:47;;;;;;;;;;;;;;;;;;1004918;29;1390;-33
2021/11/25 01:05:17;;;;;;;;;;;;;;;;;;1004999;29;1484;-35
2021/11/25 01:05:48;;;;;;;;;;;;;;;;;;1004967;29;1133;-35
2021/11/25 01:06:19;;;;;;;;;;;;;;;;;;1005832;29;816;-35
2021/11/25 01:06:49;;;;;;;;;;;;;;;;;;1005682;29;1180;-37
2021/11/25 01:07:20;;;;;;;;;;;;;;;;;;1005695;29;1169;-33
2021/11/25 01:07:51;;;;;;;;;;;;;;;;;;1005599;29;1075;-35
2021/11/25 01:08:21;;;;;;;;;;;;;;;;;;1005626;29;1028;-36
2021/11/25 01:08:52;;;;;;;;;;;;;;;;;;1005922;29;867;-34
2021/11/25 01:09:23;;;;;;;;;;;;;;;;;;1004999;29;940;-31
2021/11/25 01:09:53;;;;;;;;;;;;;;;;;;1004838;29;947;-36
2021/11/25 01:10:24;;;;;;;;;;;;;;;;;;1005220;29;958;-33
2021/11/25 01:10:54;;;;;;;;;;;;;;;;;;1004881;29;1919;-34
2021/11/25 01:11:25;;;;;;;;;;;;;;;;;;1005733;29;1061;-35
2021/11/25 01:12:01;;;;;;;;;;;;;;;;;;1005781;29;970;-33
2021/11/25 01:12:32;;;;;;;;;;;;;;;;;;1008598;29;1021;-36
2021/11/25 01:13:03;;;;;;;;;;;;;;;;;;1012266;29;1279;-34
2021/11/25 01:13:33;;;;;;;;;;;;;;;;;;1012245;29;1039;-34
2021/11/25 01:14:04;;;;;;;;;;;;;;;;;;1012263;29;1338;-33
2021/11/25 01:14:35;;;;;;;;;;;;;;;;;;1008154;29;1575;-33
2021/11/25 01:15:07;;;;;;;;;;;;;;;;;;1005459;29;1161;-34
2021/11/25 01:15:37;;;;;;;;;;;;;;;;;;1005543;29;919;-37
2021/11/25 01:16:08;;;;;;;;;;;;;;;;;;1005714;29;1142;-33
2021/11/25 01:16:38;;;;;;;;;;;;;;;;;;1005691;29;840;-32
2021/11/25 01:17:09;;;;;;;;;;;;;;;;;;1005637;29;1035;-34
2021/11/25 01:17:40;;;;;;;;;;;;;;;;;;1004610;29;959;-36
2021/11/25 01:18:12;;;;;;;;;;;;;;;;;;1004836;29;968;-34
2021/11/25 01:18:43;;;;;;;;;;;;;;;;;;1004648;29;1419;-32
2021/11/25 01:19:13;;;;;;;;;;;;;;;;;;1004861;29;1149;-37
2021/11/25 01:19:45;;;;;;;;;;;;;;;;;;1004923;29;996;-36
2021/11/25 01:20:16;;;;;;;;;;;;;;;;;;1000933;29;1630;-35
2021/11/25 01:20:48;;;;;;;;;;;;;;;;;;1001476;29;1223;-35
2021/11/25 01:21:18;;;;;;;;;;;;;;;;;;1004795;29;1048;-35
2021/11/25 01:21:48;;;;;;;;;;;;;;;;;;1004919;29;1051;-35
2021/11/25 01:22:19;;;;;;;;;;;;;;;;;;1005904;29;930;-32
2021/11/25 01:22:50;;;;;;;;;;;;;;;;;;1005243;29;1624;-35
2021/11/25 01:23:25;;;;;;;;;;;;;;;;;;1004875;29;1001;-33
2021/11/25 01:23:56;;;;;;;;;;;;;;;;;;1004822;29;906;-37
2021/11/25 01:24:26;;;;;;;;;;;;;;;;;;1000881;29;1100;-34
2021/11/25 01:24:57;;;;;;;;;;;;;;;;;;1001824;29;1682;-32
2021/11/25 01:25:27;;;;;;;;;;;;;;;;;;1004650;29;1249;-33
2021/11/25 01:25:58;;;;;;;;;;;;;;;;;;1005059;29;1121;-34
2021/11/25 01:26:29;;;;;;;;;;;;;;;;;;1005736;29;1125;-31
2021/11/25 01:26:59;;;;;;;;;;;;;;;;;;1004943;29;1036;-34
2021/11/25 01:27:30;;;;;;;;;;;;;;;;;;1008705;29;912;-34
2021/11/25 01:28:01;;;;;;;;;;;;;;;;;;1008779;29;1114;-34
2021/11/25 01:28:32;;;;;;;;;;;;;;;;;;1004730;29;1022;-34
2021/11/25 01:29:02;;;;;;;;;;;;;;;;;;1001303;29;1255;-33
2021/11/25 01:29:33;;;;;;;;;;;;;;;;;;1004607;29;1059;-35
2021/11/25 01:30:05;;;;;;;;;;;;;;;;;;1001506;29;1301;-37
2021/11/25 01:30:36;;;;;;;;;;;;;;;;;;1004818;29;1991;-35
2021/11/25 01:31:07;;;;;;;;;;;;;;;;;;1000797;29;1073;-37
2021/11/25 01:31:38;;;;;;;;;;;;;;;;;;1004832;29;938;-36
2021/11/25 01:32:09;;;;;;;;;;;;;;;;;;1004867;29;1151;-32
2021/11/25 01:32:40;;;;;;;;;;;;;;;;;;1007775;29;1069;-33
2021/11/25 01:33:11;;;;;;;;;;;;;;;;;;997388;29;1458;-32
2021/11/25 01:33:42;;;;;;;;;;;;;;;;;;1004856;29;1286;-36
2021/11/25 01:34:12;;;;;;;;;;;;;;;;;;1005575;29;1382;-33
2021/11/25 01:34:43;;;;;;;;;;;;;;;;;;1009050;29;1191;-32
2021/11/25 01:35:13;;;;;;;;;;;;;;;;;;1009320;29;887;-36
2021/11/25 01:35:45;;;;;;;;;;;;;;;;;;1000894;29;1521;-34
2021/11/25 01:36:15;;;;;;;;;;;;;;;;;;1001127;29;1026;-32
2021/11/25 01:36:46;;;;;;;;;;;;;;;;;;1001502;29;1319;-35
2021/11/25 01:37:16;;;;;;;;;;;;;;;;;;1008941;29;1150;-35
2021/11/25 01:37:50;;;;;;;;;;;;;;;;;;1016346;29;894;-35
2021/11/25 01:38:21;;;;;;;;;;;;;;;;;;1016665;29;864;-30
2021/11/25 01:38:52;;;;;;;;;;;;;;;;;;1015380;29;952;-34
2021/11/25 01:39:22;;;;;;;;;;;;;;;;;;1005070;29;1288;-31
2021/11/25 01:39:53;;;;;;;;;;;;;;;;;;1004607;29;1313;-36
2021/11/25 01:40:23;;;;;;;;;;;;;;;;;;1005068;29;918;-33
2021/11/25 01:40:54;;;;;;;;;;;;;;;;;;1005090;29;936;-34
2021/11/25 01:41:26;;;;;;;;;;;;;;;;;;1004814;29;1022;-36
2021/11/25 01:41:56;;;;;;;;;;;;;;;;;;1001135;29;1616;-35
2021/11/25 01:42:27;;;;;;;;;;;;;;;;;;997335;29;1057;-33
2021/11/25 01:42:57;;;;;;;;;;;;;;;;;;997176;29;879;-33
2021/11/25 01:43:28;;;;;;;;;;;;;;;;;;1001456;29;966;-32
2021/11/25 01:43:59;;;;;;;;;;;;;;;;;;1008482;29;1062;-35
2021/11/25 01:44:29;;;;;;;;;;;;;;;;;;1008914;29;811;-34
2021/11/25 01:45:00;;;;;;;;;;;;;;;;;;1008958;29;1038;-33
2021/11/25 01:45:31;;;;;;;;;;;;;;;;;;1008838;29;926;-35
2021/11/25 01:46:11;;;;;;;;;;;;;;;;;;1006411;29;930;-36
2021/11/25 01:46:42;;;;;;;;;;;;;;;;;;1005529;29;1010;-32
2021/11/25 01:47:12;;;;;;;;;;;;;;;;;;1005709;29;942;-34
2021/11/25 01:47:44;;;;;;;;;;;;;;;;;;1001643;29;1024;-33
2021/11/25 01:48:15;;;;;;;;;;;;;;;;;;998166;29;930;-34
2021/11/25 01:48:47;;;;;;;;;;;;;;;;;;998127;29;950;-34
2021/11/25 01:49:17;;;;;;;;;;;;;;;;;;998005;29;1327;-35
2021/11/25 01:49:48;;;;;;;;;;;;;;;;;;1002098;29;1224;-30
2021/11/25 01:50:19;;;;;;;;;;;;;;;;;;1005786;29;1339;-32
2021/11/25 01:50:50;;;;;;;;;;;;;;;;;;1006106;29;1970;-34
2021/11/25 01:51:21;;;;;;;;;;;;;;;;;;1006527;29;851;-32
2021/11/25 01:51:51;;;;;;;;;;;;;;;;;;1006329;29;993;-31
2021/11/25 01:52:22;;;;;;;;;;;;;;;;;;1006315;29;922;-35
2021/11/25 01:52:54;;;;;;;;;;;;;;;;;;1005316;29;1425;-33
2021/11/25 01:53:24;;;;;;;;;;;;;;;;;;1001493;29;935;-35
2021/11/25 01:53:55;;;;;;;;;;;;;;;;;;1001707;29;977;-36
2021/11/25 01:54:26;;;;;;;;;;;;;;;;;;994619;29;1009;-33
2021/11/25 01:54:56;;;;;;;;;;;;;;;;;;997823;29;1301;-31
2021/11/25 01:55:27;;;;;;;;;;;;;;;;;;998322;29;856;-33
2021/11/25 01:55:58;;;;;;;;;;;;;;;;;;997911;29;1023;-33
2021/11/25 01:56:29;;;;;;;;;;;;;;;;;;1006457;29;950;-34
2021/11/25 01:56:59;;;;;;;;;;;;;;;;;;1006373;29;862;-36
2021/11/25 01:57:30;;;;;;;;;;;;;;;;;;1006304;29;792;-34
2021/11/25 01:58:00;;;;;;;;;;;;;;;;;;1006251;29;1275;-36
2021/11/25 01:58:31;;;;;;;;;;;;;;;;;;1005854;29;1285;-34
2021/11/25 01:59:01;;;;;;;;;;;;;;;;;;1006390;29;945;-36
2021/11/25 01:59:32;;;;;;;;;;;;;;;;;;1006202;29;1563;-35
2021/11/25 02:00:13;;;;;;;;;;;;;;;;;;1005900;29;1047;-34
2021/11/25 02:01:04;;;;;;;;;;;;;;;;;;1006508;29;1020;-34
2021/11/25 02:01:34;;;;;;;;;;;;;;;;;;1006023;29;919;-31
2021/11/25 02:02:06;;;;;;;;;;;;;;;;;;1006166;29;1044;-31
2021/11/25 02:02:37;;;;;;;;;;;;;;;;;;1009432;29;1487;-34
2021/11/25 02:03:08;;;;;;;;;;;;;;;;;;1009601;29;1129;-33
2021/11/25 02:03:40;;;;;;;;;;;;;;;;;;1013269;29;1120;-31
2021/11/25 02:04:10;;;;;;;;;;;;;;;;;;1012937;29;882;-36
2021/11/25 02:04:41;;;;;;;;;;;;;;;;;;1009659;29;1317;-31
2021/11/25 02:05:11;;;;;;;;;;;;;;;;;;1009142;29;1093;-35
2021/11/25 02:05:42;;;;;;;;;;;;;;;;;;1006381;29;942;-30
2021/11/25 02:06:14;;;;;;;;;;;;;;;;;;1006211;29;1657;-36
2021/11/25 02:06:44;;;;;;;;;;;;;;;;;;1006011;29;1141;-34
2021/11/25 02:07:15;;;;;;;;;;;;;;;;;;1006397;29;1160;-34
2021/11/25 02:07:45;;;;;;;;;;;;;;;;;;1005891;29;1268;-35
2021/11/25 02:08:16;;;;;;;;;;;;;;;;;;1006291;29;1063;-36
2021/11/25 02:08:46;;;;;;;;;;;;;;;;;;1004372;29;891;-34
2021/11/25 02:09:17;;;;;;;;;;;;;;;;;;1005801;29;1386;-36
2021/11/25 02:09:47;;;;;;;;;;;;;;;;;;1006433;29;903;-34
2021/11/25 02:10:18;;;;;;;;;;;;;;;;;;1006119;29;1145;-30
2021/11/25 02:10:50;;;;;;;;;;;;;;;;;;1006259;29;1972;-31
2021/11/25 02:11:21;;;;;;;;;;;;;;;;;;1006269;29;1008;-32
2021/11/25 02:11:51;;;;;;;;;;;;;;;;;;1006446;29;895;-35
2021/11/25 02:12:22;;;;;;;;;;;;;;;;;;1006292;29;906;-32
2021/11/25 02:12:53;;;;;;;;;;;;;;;;;;1006178;29;899;-34
2021/11/25 02:13:23;;;;;;;;;;;;;;;;;;1005563;29;1025;-32
2021/11/25 02:13:54;;;;;;;;;;;;;;;;;;1005617;29;972;-35
2021/11/25 02:14:24;;;;;;;;;;;;;;;;;;1005384;29;1937;-36
2021/11/25 02:14:55;;;;;;;;;;;;;;;;;;1005679;29;966;-33
2021/11/25 02:15:26;;;;;;;;;;;;;;;;;;1009130;29;1343;-36
2021/11/25 02:15:56;;;;;;;;;;;;;;;;;;1009370;29;1196;-34
2021/11/25 02:16:27;;;;;;;;;;;;;;;;;;1009411;29;960;-35
2021/11/25 02:16:58;;;;;;;;;;;;;;;;;;1006480;29;847;-37
2021/11/25 02:17:28;;;;;;;;;;;;;;;;;;1006243;29;851;-31
2021/11/25 02:17:59;;;;;;;;;;;;;;;;;;1006308;29;867;-34
2021/11/25 02:18:29;;;;;;;;;;;;;;;;;;1005368;29;996;-32
2021/11/25 02:19:00;;;;;;;;;;;;;;;;;;1005547;29;870;-34
2021/11/25 02:19:31;;;;;;;;;;;;;;;;;;1005641;29;915;-32
2021/11/25 02:20:03;;;;;;;;;;;;;;;;;;1005364;29;1587;-34
2021/11/25 02:20:35;;;;;;;;;;;;;;;;;;1006036;29;1298;-33
2021/11/25 02:21:05;;;;;;;;;;;;;;;;;;1005853;29;1341;-33
2021/11/25 02:21:42;;;;;;;;;;;;;;;;;;1006279;29;944;-31
2021/11/25 02:22:13;;;;;;;;;;;;;;;;;;1001407;29;1283;-33
2021/11/25 02:22:43;;;;;;;;;;;;;;;;;;1001550;29;1087;-35
2021/11/25 02:23:14;;;;;;;;;;;;;;;;;;1001428;29;1082;-35
2021/11/25 02:23:45;;;;;;;;;;;;;;;;;;1001713;29;1397;-35
2021/11/25 02:24:15;;;;;;;;;;;;;;;;;;1006269;29;1125;-32
2021/11/25 02:24:49;;;;;;;;;;;;;;;;;;1006184;29;823;-37
2021/11/25 02:25:20;;;;;;;;;;;;;;;;;;1005621;29;1008;-33
2021/11/25 02:25:50;;;;;;;;;;;;;;;;;;1005442;29;1204;-35
2021/11/25 02:26:21;;;;;;;;;;;;;;;;;;1005306;29;1334;-29
2021/11/25 02:26:51;;;;;;;;;;;;;;;;;;1005687;29;1039;-33
2021/11/25 02:27:22;;;;;;;;;;;;;;;;;;1006137;29;856;-33
2021/11/25 02:27:53;;;;;;;;;;;;;;;;;;1006370;29;1061;-37
2021/11/25 02:28:26;;;;;;;;;;;;;;;;;;1005151;29;1000;-34
2021/11/25 02:28:57;;;;;;;;;;;;;;;;;;1005211;29;1543;-36
2021/11/25 02:29:28;;;;;;;;;;;;;;;;;;1005228;29;1048;-33
2021/11/25 02:29:58;;;;;;;;;;;;;;;;;;1006036;29;1194;-36
2021/11/25 02:30:29;;;;;;;;;;;;;;;;;;1008872;29;1258;-33
2021/11/25 02:31:00;;;;;;;;;;;;;;;;;;1005804;29;1972;-34
2021/11/25 02:31:30;;;;;;;;;;;;;;;;;;1006143;29;914;-34
2021/11/25 02:32:01;;;;;;;;;;;;;;;;;;1006281;29;1015;-36
2021/11/25 02:32:35;;;;;;;;;;;;;;;;;;1006177;29;1020;-35
2021/11/25 02:33:06;;;;;;;;;;;;;;;;;;1006005;29;880;-31
2021/11/25 02:33:40;;;;;;;;;;;;;;;;;;1006286;29;902;-35
2021/11/25 02:34:10;;;;;;;;;;;;;;;;;;1005949;29;863;-37
2021/11/25 02:34:41;;;;;;;;;;;;;;;;;;1006097;29;1342;-36
2021/11/25 02:35:16;;;;;;;;;;;;;;;;;;1006135;29;1252;-36
2021/11/25 02:35:47;;;;;;;;;;;;;;;;;;1006097;29;1221;-35
2021/11/25 02:36:17;;;;;;;;;;;;;;;;;;1006418;29;1359;-36
2021/11/25 02:36:48;;;;;;;;;;;;;;;;;;1006088;29;914;-31
2021/11/25 02:37:19;;;;;;;;;;;;;;;;;;1006441;29;777;-33
2021/11/25 02:37:50;;;;;;;;;;;;;;;;;;1006358;29;865;-34
2021/11/25 02:38:21;;;;;;;;;;;;;;;;;;1005576;29;1433;-36
2021/11/25 02:38:52;;;;;;;;;;;;;;;;;;1006313;29;1018;-36
2021/11/25 02:39:23;;;;;;;;;;;;;;;;;;1005966;29;1050;-35
2021/11/25 02:39:54;;;;;;;;;;;;;;;;;;1008854;29;1485;-36
2021/11/25 02:40:27;;;;;;;;;;;;;;;;;;1009102;29;1062;-34
2021/11/25 02:40:58;;;;;;;;;;;;;;;;;;1009231;29;1323;-34
2021/11/25 02:41:29;;;;;;;;;;;;;;;;;;1000966;29;1161;-36
2021/11/25 02:41:59;;;;;;;;;;;;;;;;;;997876;29;1001;-36
2021/11/25 02:42:30;;;;;;;;;;;;;;;;;;997566;29;1282;-35
2021/11/25 02:43:02;;;;;;;;;;;;;;;;;;997894;29;999;-33
2021/11/25 02:43:34;;;;;;;;;;;;;;;;;;1002257;29;1170;-33
2021/11/25 02:44:04;;;;;;;;;;;;;;;;;;1002488;29;927;-34
2021/11/25 02:44:35;;;;;;;;;;;;;;;;;;1002362;29;910;-34
2021/11/25 02:45:05;;;;;;;;;;;;;;;;;;1002269;29;907;-36
2021/11/25 02:45:54;;;;;;;;;;;;;;;;;;1002410;29;929;-36
2021/11/25 02:46:25;;;;;;;;;;;;;;;;;;1001686;29;1346;-33
2021/11/25 02:47:00;;;;;;;;;;;;;;;;;;1002275;29;972;-34
2021/11/25 02:47:30;;;;;;;;;;;;;;;;;;1002563;29;884;-34
2021/11/25 02:48:00;;;;;;;;;;;;;;;;;;1005528;29;1058;-35
2021/11/25 02:48:36;;;;;;;;;;;;;;;;;;1005556;29;907;-35
2021/11/25 02:49:07;;;;;;;;;;;;;;;;;;1005799;29;996;-33
2021/11/25 02:49:41;;;;;;;;;;;;;;;;;;1005038;29;1284;-33
2021/11/25 02:50:14;;;;;;;;;;;;;;;;;;1002395;29;944;-30
2021/11/25 02:50:45;;;;;;;;;;;;;;;;;;1002305;29;1911;-37
2021/11/25 02:51:18;;;;;;;;;;;;;;;;;;1001868;29;915;-29
2021/11/25 02:51:48;;;;;;;;;;;;;;;;;;1002551;29;824;-35
2021/11/25 02:52:20;;;;;;;;;;;;;;;;;;1002302;29;976;-33
2021/11/25 02:52:51;;;;;;;;;;;;;;;;;;1009356;29;944;-34
2021/11/25 02:53:25;;;;;;;;;;;;;;;;;;1008924;29;1277;-35
2021/11/25 02:53:55;;;;;;;;;;;;;;;;;;1009223;29;1025;-31
2021/11/25 02:54:26;;;;;;;;;;;;;;;;;;1008626;29;903;-33
2021/11/25 02:54:56;;;;;;;;;;;;;;;;;;1002408;29;1047;-35
2021/11/25 02:55:27;;;;;;;;;;;;;;;;;;1002225;29;896;-37
2021/11/25 02:55:59;;;;;;;;;;;;;;;;;;1002475;29;953;-36
2021/11/25 02:56:29;;;;;;;;;;;;;;;;;;1001962;29;1097;-36
2021/11/25 02:57:00;;;;;;;;;;;;;;;;;;1002232;29;1063;-36
2021/11/25 02:57:34;;;;;;;;;;;;;;;;;;1002453;29;968;-35
2021/11/25 02:58:05;;;;;;;;;;;;;;;;;;1002209;29;1080;-32
2021/11/25 02:58:35;;;;;;;;;;;;;;;;;;1001993;29;1278;-34
2021/11/25 02:59:06;;;;;;;;;;;;;;;;;;1009136;29;1809;-34
2021/11/25 02:59:37;;;;;;;;;;;;;;;;;;1009074;29;1184;-36
2021/11/25 03:00:14;;;;;;;;;;;;;;;;;;1009369;29;1071;-36
2021/11/25 03:00:46;;;;;;;;;;;;;;;;;;1004476;29;1004;-34
2021/11/25 03:01:19;;;;;;;;;;;;;;;;;;1001466;29;923;-33
2021/11/25 03:01:49;;;;;;;;;;;;;;;;;;1001539;29;1169;-35
2021/11/25 03:02:20;;;;;;;;;;;;;;;;;;1001240;29;1489;-34
2021/11/25 03:02:58;;;;;;;;;;;;;;;;;;1002364;29;1090;-34
2021/11/25 03:03:29;;;;;;;;;;;;;;;;;;1002288;29;872;-36
2021/11/25 03:04:00;;;;;;;;;;;;;;;;;;1008883;29;1218;-33
2021/11/25 03:04:31;;;;;;;;;;;;;;;;;;1009540;29;903;-33
2021/11/25 03:05:01;;;;;;;;;;;;;;;;;;1008927;29;1354;-30
2021/11/25 03:05:32;;;;;;;;;;;;;;;;;;1009063;29;1019;-32
2021/11/25 03:06:02;;;;;;;;;;;;;;;;;;1002395;29;894;-34
2021/11/25 03:06:34;;;;;;;;;;;;;;;;;;1012854;29;1333;-34
2021/11/25 03:07:05;;;;;;;;;;;;;;;;;;1005603;29;1538;-34
2021/11/25 03:07:35;;;;;;;;;;;;;;;;;;1005460;29;1044;-33
2021/11/25 03:08:06;;;;;;;;;;;;;;;;;;1004963;29;913;-35
2021/11/25 03:08:37;;;;;;;;;;;;;;;;;;998060;29;957;-36
2021/11/25 03:09:09;;;;;;;;;;;;;;;;;;1001887;29;1409;-35
2021/11/25 03:09:39;;;;;;;;;;;;;;;;;;1002436;29;1044;-35
2021/11/25 03:10:10;;;;;;;;;;;;;;;;;;1002233;29;1002;-33
2021/11/25 03:10:45;;;;;;;;;;;;;;;;;;1002096;29;1915;-34
2021/11/25 03:11:17;;;;;;;;;;;;;;;;;;1013127;29;975;-35
2021/11/25 03:11:53;;;;;;;;;;;;;;;;;;1012626;29;1362;-35
2021/11/25 03:12:23;;;;;;;;;;;;;;;;;;1012927;29;935;-35
2021/11/25 03:12:54;;;;;;;;;;;;;;;;;;1010720;29;1053;-36
2021/11/25 03:13:25;;;;;;;;;;;;;;;;;;1001900;29;908;-30
2021/11/25 03:13:56;;;;;;;;;;;;;;;;;;1002505;29;915;-34
2021/11/25 03:14:27;;;;;;;;;;;;;;;;;;1001808;29;1352;-34
2021/11/25 03:14:57;;;;;;;;;;;;;;;;;;1002251;29;1102;-34
2021/11/25 03:15:32;;;;;;;;;;;;;;;;;;1002405;29;958;-34
2021/11/25 03:16:03;;;;;;;;;;;;;;;;;;1001973;29;981;-34
2021/11/25 03:16:33;;;;;;;;;;;;;;;;;;1002305;29;994;-35
2021/11/25 03:17:04;;;;;;;;;;;;;;;;;;1008887;29;1437;-36
2021/11/25 03:17:37;;;;;;;;;;;;;;;;;;1008825;29;980;-38
2021/11/25 03:18:09;;;;;;;;;;;;;;;;;;1005139;29;978;-39
2021/11/25 03:18:40;;;;;;;;;;;;;;;;;;1004531;29;1001;-36
2021/11/25 03:19:12;;;;;;;;;;;;;;;;;;1000859;29;1125;-36
2021/11/25 03:19:42;;;;;;;;;;;;;;;;;;995087;29;961;-35
2021/11/25 03:20:13;;;;;;;;;;;;;;;;;;1002129;29;1167;-33
2021/11/25 03:20:46;;;;;;;;;;;;;;;;;;1002430;29;876;-38
2021/11/25 03:21:17;;;;;;;;;;;;;;;;;;1001876;29;1363;-37
2021/11/25 03:21:48;;;;;;;;;;;;;;;;;;1002209;29;1109;-34
2021/11/25 03:22:18;;;;;;;;;;;;;;;;;;1002009;29;1257;-35
2021/11/25 03:22:49;;;;;;;;;;;;;;;;;;1001678;29;1222;-35
2021/11/25 03:23:21;;;;;;;;;;;;;;;;;;1009182;29;992;-37
2021/11/25 03:23:53;;;;;;;;;;;;;;;;;;1008772;29;1646;-36
2021/11/25 03:24:23;;;;;;;;;;;;;;;;;;1005051;29;1009;-35
2021/11/25 03:24:55;;;;;;;;;;;;;;;;;;1004331;29;1116;-36
2021/11/25 03:25:25;;;;;;;;;;;;;;;;;;997595;29;1083;-34
2021/11/25 03:25:57;;;;;;;;;;;;;;;;;;997930;29;975;-37
2021/11/25 03:26:28;;;;;;;;;;;;;;;;;;1009003;29;1044;-36
2021/11/25 03:26:59;;;;;;;;;;;;;;;;;;1001362;29;950;-36
2021/11/25 03:27:30;;;;;;;;;;;;;;;;;;1001441;29;962;-37
2021/11/25 03:28:01;;;;;;;;;;;;;;;;;;1001219;29;1011;-35
2021/11/25 03:28:32;;;;;;;;;;;;;;;;;;997936;29;961;-35
2021/11/25 03:29:02;;;;;;;;;;;;;;;;;;1005367;29;960;-33
2021/11/25 03:29:33;;;;;;;;;;;;;;;;;;1002034;29;891;-37
2021/11/25 03:30:04;;;;;;;;;;;;;;;;;;1002481;29;930;-37
2021/11/25 03:30:35;;;;;;;;;;;;;;;;;;1002043;29;949;-36
2021/11/25 03:31:06;;;;;;;;;;;;;;;;;;1002014;29;871;-37
2021/11/25 03:31:36;;;;;;;;;;;;;;;;;;1002287;29;930;-38
2021/11/25 03:32:07;;;;;;;;;;;;;;;;;;1002154;29;899;-36
2021/11/25 03:32:37;;;;;;;;;;;;;;;;;;1002295;29;784;-36
2021/11/25 03:33:10;;;;;;;;;;;;;;;;;;1012651;29;973;-36
2021/11/25 03:33:40;;;;;;;;;;;;;;;;;;1013050;29;1049;-34
2021/11/25 03:34:11;;;;;;;;;;;;;;;;;;1013325;29;954;-37
2021/11/25 03:34:42;;;;;;;;;;;;;;;;;;1004517;29;957;-36
2021/11/25 03:35:12;;;;;;;;;;;;;;;;;;997920;29;918;-37
2021/11/25 03:35:42;;;;;;;;;;;;;;;;;;997223;29;1290;-35
2021/11/25 03:36:13;;;;;;;;;;;;;;;;;;997675;29;1051;-38
2021/11/25 03:36:44;;;;;;;;;;;;;;;;;;1012919;29;898;-34
2021/11/25 03:37:15;;;;;;;;;;;;;;;;;;1012936;29;982;-33
2021/11/25 03:37:46;;;;;;;;;;;;;;;;;;1005142;29;1024;-39